createdAt,value
2024-01-16T00:04:32.484Z,99509.75
2024-01-16T00:09:38.365Z,99537.97
2024-01-16T00:14:41.169Z,99507.09
2024-01-16T00:19:43.812Z,99458.19
2024-01-16T00:24:46.093Z,99472.75
2024-01-16T00:29:48.501Z,99505.28
2024-01-16T00:34:50.912Z,99496.09
2024-01-16T00:39:53.435Z,99542.69
2024-01-16T00:44:55.766Z,99482.59
2024-01-16T00:49:58.046Z,99491.06
2024-01-16T00:55:00.754Z,99520.09
2024-01-16T01:00:03.123Z,99520.63
2024-01-16T01:05:05.804Z,99466.22
2024-01-16T01:10:08.669Z,99519.53
2024-01-16T01:15:11.982Z,99478.47
2024-01-16T01:20:14.533Z,99431.41
2024-01-16T01:25:17.207Z,99455.38
2024-01-16T01:30:19.756Z,99484.88
2024-01-16T01:35:22.177Z,99540.94
2024-01-16T01:40:24.429Z,99495.09
2024-01-16T01:45:26.883Z,99480.03
2024-01-16T01:50:29.380Z,99512.19
2024-01-16T01:55:32.209Z,99480.13
2024-01-16T02:00:35.271Z,99453.00
2024-01-16T02:05:40.432Z,99454.19
2024-01-16T02:10:47.436Z,99484.34
2024-01-16T02:15:49.585Z,99523.13
2024-01-16T02:20:52.071Z,99503.09
2024-01-16T02:25:55.161Z,99508.06
2024-01-16T02:30:58.077Z,99518.91
2024-01-16T02:36:00.271Z,99548.03
2024-01-16T02:41:02.517Z,99543.50
2024-01-16T02:46:05.183Z,99553.53
2024-01-16T02:51:07.357Z,99555.25
2024-01-16T02:56:10.318Z,99534.59
2024-01-16T03:01:12.919Z,99559.22
2024-01-16T03:06:26.158Z,99547.72
2024-01-16T03:11:30.109Z,99572.38
2024-01-16T03:16:33.686Z,99573.00
2024-01-16T03:21:35.912Z,99556.69
2024-01-16T03:26:42.083Z,99565.28
2024-01-16T03:31:44.488Z,99566.69
2024-01-16T03:36:46.658Z,99551.88
2024-01-16T03:41:48.845Z,99538.41
2024-01-16T03:46:51.147Z,99544.16
2024-01-16T03:51:53.485Z,99560.69
2024-01-16T03:56:56.066Z,99500.44
2024-01-16T04:01:59.006Z,99491.94
2024-01-16T04:07:01.295Z,99568.81
2024-01-16T04:12:04.154Z,99541.03
2024-01-16T04:17:07.426Z,99566.47
2024-01-16T04:22:10.633Z,99553.22
2024-01-16T04:27:14.018Z,99580.47
2024-01-16T04:32:16.230Z,99567.81
2024-01-16T04:37:18.562Z,99658.03
2024-01-16T04:42:20.864Z,99621.88
2024-01-16T04:47:23.937Z,99594.34
2024-01-16T04:52:26.304Z,99668.22
2024-01-16T04:57:28.640Z,99600.00
2024-01-16T05:02:30.871Z,99680.94
2024-01-16T05:07:33.201Z,99690.66
2024-01-16T05:12:35.401Z,99660.78
2024-01-16T05:17:37.733Z,99624.13
2024-01-16T05:22:40.545Z,99662.41
2024-01-16T05:27:44.796Z,99698.84
2024-01-16T05:32:47.323Z,99698.41
2024-01-16T05:37:49.657Z,99642.63
2024-01-16T05:42:51.895Z,99660.16
2024-01-16T05:47:54.202Z,99685.09
2024-01-16T05:52:56.423Z,99729.78
2024-01-16T05:57:58.728Z,99728.09
2024-01-16T06:03:01.168Z,99724.88
2024-01-16T06:08:04.358Z,99722.69
2024-01-16T06:13:06.560Z,99745.19
2024-01-16T06:18:10.415Z,99744.50
2024-01-16T06:23:12.689Z,99746.19
2024-01-16T06:28:14.799Z,99734.34
2024-01-16T06:33:17.058Z,99771.88
2024-01-16T06:38:19.933Z,99786.63
2024-01-16T06:43:22.179Z,99768.22
2024-01-16T06:48:24.962Z,99754.28
2024-01-16T06:53:27.426Z,99834.44
2024-01-16T06:58:29.707Z,99777.53
2024-01-16T07:03:31.968Z,99766.38
2024-01-16T07:08:34.526Z,99783.25
2024-01-16T07:13:36.778Z,99822.44
2024-01-16T07:18:40.315Z,99856.97
2024-01-16T07:23:42.866Z,99843.28
2024-01-16T07:28:45.410Z,99867.72
2024-01-16T07:33:47.744Z,99840.56
2024-01-16T07:38:50.047Z,99848.38
2024-01-16T07:43:52.281Z,99857.81
2024-01-16T07:48:54.571Z,99859.06
2024-01-16T07:54:08.120Z,99853.44
2024-01-16T07:59:10.381Z,99869.91
2024-01-16T08:04:12.622Z,99902.47
2024-01-16T08:09:15.575Z,99899.63
2024-01-16T08:14:17.726Z,99894.63
2024-01-16T08:19:20.361Z,99898.34
2024-01-16T08:24:23.110Z,99897.44
2024-01-16T08:29:26.047Z,99894.84
2024-01-16T08:34:28.445Z,99918.19
2024-01-16T08:39:34.522Z,99937.19
2024-01-16T08:44:36.720Z,99939.75
2024-01-16T08:49:40.046Z,99928.22
2024-01-16T08:54:42.330Z,99948.47
2024-01-16T08:59:44.478Z,99951.41
2024-01-16T09:04:47.133Z,99966.25
2024-01-16T09:09:49.322Z,99944.81
2024-01-16T09:14:51.609Z,99944.63
2024-01-16T09:19:53.795Z,99940.53
2024-01-16T09:24:55.932Z,99930.72
2024-01-16T09:29:58.206Z,99947.91
2024-01-16T09:35:02.553Z,99939.09
2024-01-16T09:40:06.612Z,99932.53
2024-01-16T09:45:10.734Z,99963.44
2024-01-16T09:50:13.693Z,99945.75
2024-01-16T09:55:16.493Z,99956.19
2024-01-16T10:00:18.990Z,99953.97
2024-01-16T10:05:22.432Z,99931.72
2024-01-16T10:10:34.358Z,99945.19
2024-01-16T10:15:41.176Z,99948.97
2024-01-16T10:20:43.350Z,99941.31
2024-01-16T10:25:45.478Z,99935.16
2024-01-16T10:30:47.755Z,99939.88
2024-01-16T10:35:50.114Z,99933.50
2024-01-16T10:41:06.872Z,99937.22
2024-01-16T10:46:13.617Z,99942.78
2024-01-16T10:51:16.740Z,99943.81
2024-01-16T10:56:20.731Z,99942.75
2024-01-16T11:01:23.344Z,99949.97
2024-01-16T11:06:25.959Z,99965.19
2024-01-16T11:11:29.103Z,99951.91
2024-01-16T11:16:33.985Z,99948.72
2024-01-16T11:21:38.578Z,99936.66
2024-01-16T11:26:44.626Z,99936.47
2024-01-16T11:31:46.865Z,99937.25
2024-01-16T11:36:56.360Z,99932.34
2024-01-16T11:41:59.395Z,99934.53
2024-01-16T11:47:04.222Z,99931.53
2024-01-16T11:52:06.662Z,99933.13
2024-01-16T11:57:23.774Z,99928.16
2024-01-16T12:02:49.270Z,99919.41
2024-01-16T12:07:54.274Z,99917.25
2024-01-16T12:13:05.569Z,99918.59
2024-01-16T12:18:13.671Z,99914.28
2024-01-16T12:23:23.428Z,99928.41
2024-01-16T12:28:32.188Z,99933.19
2024-01-16T12:33:36.055Z,99937.94
2024-01-16T12:38:38.388Z,99938.56
2024-01-16T12:43:41.194Z,99934.91
2024-01-16T12:48:52.859Z,99931.56
2024-01-16T12:54:15.628Z,99953.88
2024-01-16T12:59:19.375Z,99959.53
2024-01-16T13:04:22.956Z,99971.78
2024-01-16T13:09:25.137Z,99956.47
2024-01-16T13:14:27.856Z,99982.91
2024-01-16T13:19:34.910Z,99974.59
2024-01-16T13:24:37.522Z,99982.44
2024-01-16T13:29:41.765Z,100000.41
2024-01-16T13:34:50.213Z,99997.28
2024-01-16T13:39:52.396Z,100016.19
2024-01-16T13:44:55.857Z,100013.47
2024-01-16T13:49:58.243Z,100022.41
2024-01-16T13:55:00.761Z,100032.78
2024-01-16T14:00:05.016Z,100041.41
2024-01-16T14:05:07.416Z,100037.81
2024-01-16T14:10:13.702Z,100046.69
2024-01-16T14:15:21.169Z,100058.13
2024-01-16T14:20:27.754Z,100057.91
2024-01-16T14:25:30.823Z,100062.56
2024-01-16T14:30:37.528Z,100053.06
2024-01-16T14:35:40.127Z,100064.72
2024-01-16T14:40:42.304Z,100080.53
2024-01-16T14:45:44.534Z,100076.53
2024-01-16T14:50:48.703Z,100099.56
2024-01-16T14:55:53.305Z,100093.13
2024-01-16T15:00:57.159Z,100095.66
2024-01-16T15:05:59.451Z,100104.19
2024-01-16T15:11:01.773Z,100125.22
2024-01-16T15:16:04.300Z,100145.81
2024-01-16T15:21:06.520Z,100131.00
2024-01-16T15:26:08.781Z,100150.09
2024-01-16T15:31:11.130Z,100163.00
2024-01-16T15:36:13.341Z,100157.84
2024-01-16T15:41:15.645Z,100177.75
2024-01-16T15:46:18.047Z,100174.47
2024-01-16T15:51:20.416Z,100192.91
2024-01-16T15:56:22.828Z,100196.41
2024-01-16T16:01:24.982Z,100215.25
2024-01-16T16:06:27.262Z,100223.72
2024-01-16T16:11:29.720Z,100230.31
2024-01-16T16:16:34.896Z,100250.78
2024-01-16T16:21:37.411Z,100251.59
2024-01-16T16:26:45.096Z,100258.22
2024-01-16T16:31:47.416Z,100265.25
2024-01-16T16:36:49.608Z,100251.28
2024-01-16T16:41:52.432Z,100230.34
2024-01-16T16:46:54.706Z,100254.75
2024-01-16T16:51:57.650Z,100267.78
2024-01-16T16:57:00.000Z,100248.50
2024-01-16T17:02:02.247Z,100277.84
2024-01-16T17:07:04.965Z,100276.72
2024-01-16T17:12:07.880Z,100306.69
2024-01-16T17:17:11.100Z,100301.47
2024-01-16T17:22:13.268Z,100311.69
2024-01-16T17:27:15.469Z,100313.44
2024-01-16T17:32:19.760Z,100327.66
2024-01-16T17:37:21.961Z,100339.53
2024-01-16T17:42:24.382Z,100342.97
2024-01-16T17:47:27.355Z,100340.69
2024-01-16T17:52:30.597Z,100340.66
2024-01-16T17:57:32.960Z,100351.03
2024-01-16T18:02:35.195Z,100354.50
2024-01-16T18:07:39.050Z,100344.38
2024-01-16T18:12:41.926Z,100372.63
2024-01-16T18:17:46.360Z,100375.00
2024-01-16T18:22:57.272Z,100395.19
2024-01-16T18:28:00.868Z,100397.69
2024-01-16T18:33:04.481Z,100412.22
2024-01-16T18:38:09.010Z,100415.84
2024-01-16T18:48:31.154Z,100410.09
2024-01-16T18:53:33.469Z,100409.66
2024-01-16T18:58:35.598Z,100411.22
2024-01-16T19:03:37.836Z,100425.56
2024-01-16T19:08:44.046Z,100411.22
2024-01-16T19:13:46.395Z,100414.25
2024-01-16T19:18:48.671Z,100416.59
2024-01-16T19:23:51.660Z,100452.19
2024-01-16T19:28:54.182Z,100450.69
2024-01-16T19:33:56.606Z,100464.91
2024-01-16T19:38:59.550Z,100466.56
2024-01-16T19:44:02.116Z,100480.25
2024-01-16T19:49:06.810Z,100480.31
2024-01-16T19:54:09.613Z,100487.75
2024-01-16T19:59:12.003Z,100515.03
2024-01-16T20:04:14.238Z,100505.75
2024-01-16T20:09:20.248Z,100506.81
2024-01-16T20:14:22.824Z,100527.41
2024-01-16T20:19:25.037Z,100506.94
2024-01-16T20:24:30.508Z,100529.56
2024-01-16T20:29:32.664Z,100518.19
2024-01-16T20:34:35.646Z,100511.22
2024-01-16T20:39:37.813Z,100531.63
2024-01-16T20:44:40.096Z,100520.31
2024-01-16T20:49:42.432Z,100530.41
2024-01-16T20:54:44.660Z,100544.25
2024-01-16T20:59:47.366Z,100535.06
2024-01-16T21:04:49.614Z,100539.63
2024-01-16T21:09:51.829Z,100563.19
2024-01-16T21:14:53.988Z,100552.41
2024-01-16T21:19:56.216Z,100543.19
2024-01-16T21:24:58.455Z,100551.81
2024-01-16T21:30:00.786Z,100567.56
2024-01-16T21:35:03.069Z,100562.63
2024-01-16T21:40:06.800Z,100571.47
2024-01-16T21:45:09.297Z,100567.00
2024-01-16T21:50:13.495Z,100567.66
2024-01-16T21:55:16.151Z,100563.97
2024-01-16T22:00:19.300Z,100553.75
2024-01-16T22:05:21.859Z,100562.63
2024-01-16T22:10:24.735Z,100573.13
2024-01-16T22:15:27.276Z,100563.28
2024-01-16T22:20:33.691Z,100557.75
2024-01-16T22:25:36.024Z,100567.09
2024-01-16T22:30:38.300Z,100556.44
2024-01-16T22:35:40.508Z,100546.91
2024-01-16T22:40:42.671Z,100563.78
2024-01-16T22:45:46.674Z,100561.47
2024-01-16T22:50:51.098Z,100565.09
2024-01-16T22:55:53.340Z,100581.22
2024-01-16T23:00:55.600Z,100574.53
2024-01-16T23:05:58.251Z,100573.69
2024-01-16T23:11:01.320Z,100598.94
2024-01-16T23:16:04.115Z,100590.22
2024-01-16T23:21:07.023Z,100585.56
2024-01-16T23:26:11.473Z,100575.91
2024-01-16T23:31:14.462Z,100588.13
2024-01-16T23:36:17.708Z,100593.31
2024-01-16T23:41:20.738Z,100604.16
2024-01-16T23:46:22.891Z,100587.28
2024-01-16T23:51:25.388Z,100585.63
2024-01-16T23:56:27.635Z,100590.81
